sensor_id;sensor_type;location;lat;lon;timestamp;P1;durP1;ratioP1;P2;durP2;ratioP2
73776;SDS011;62088;50.240;2.696;2024-03-08T00:00:12;22.83;;;15.18;;
73776;SDS011;62088;50.240;2.696;2024-03-08T00:02:43;20.05;;;12.80;;
73776;SDS011;62088;50.240;2.696;2024-03-08T00:05:11;22.25;;;13.35;;
73776;SDS011;62088;50.240;2.696;2024-03-08T00:07:39;23.20;;;13.25;;
73776;SDS011;62088;50.240;2.696;2024-03-08T00:10:07;26.58;;;13.52;;
73776;SDS011;62088;50.240;2.696;2024-03-08T00:12:40;28.83;;;14.77;;
73776;SDS011;62088;50.240;2.696;2024-03-08T00:15:13;22.98;;;14.32;;
73776;SDS011;62088;50.240;2.696;2024-03-08T00:17:43;28.55;;;16.05;;
73776;SDS011;62088;50.240;2.696;2024-03-08T00:20:11;26.52;;;14.90;;
73776;SDS011;62088;50.240;2.696;2024-03-08T00:22:40;26.55;;;14.20;;
73776;SDS011;62088;50.240;2.696;2024-03-08T00:25:07;38.63;;;16.70;;
73776;SDS011;62088;50.240;2.696;2024-03-08T00:27:41;25.17;;;15.15;;
73776;SDS011;62088;50.240;2.696;2024-03-08T00:30:08;28.52;;;15.48;;
73776;SDS011;62088;50.240;2.696;2024-03-08T00:32:37;25.45;;;15.30;;
73776;SDS011;62088;50.240;2.696;2024-03-08T00:35:05;25.77;;;15.00;;
73776;SDS011;62088;50.240;2.696;2024-03-08T00:37:35;50.50;;;24.40;;
73776;SDS011;62088;50.240;2.696;2024-03-08T00:40:02;47.63;;;19.90;;
73776;SDS011;62088;50.240;2.696;2024-03-08T00:42:30;36.67;;;16.83;;
73776;SDS011;62088;50.240;2.696;2024-03-08T00:44:57;46.97;;;21.17;;
73776;SDS011;62088;50.240;2.696;2024-03-08T00:47:25;51.10;;;25.65;;
73776;SDS011;62088;50.240;2.696;2024-03-08T00:49:52;43.88;;;22.42;;
73776;SDS011;62088;50.240;2.696;2024-03-08T00:52:20;44.30;;;21.55;;
73776;SDS011;62088;50.240;2.696;2024-03-08T00:54:47;39.53;;;21.60;;
73776;SDS011;62088;50.240;2.696;2024-03-08T00:57:14;64.03;;;30.15;;
73776;SDS011;62088;50.240;2.696;2024-03-08T00:59:41;33.45;;;17.15;;
73776;SDS011;62088;50.240;2.696;2024-03-08T01:02:09;30.33;;;16.35;;
73776;SDS011;62088;50.240;2.696;2024-03-08T01:04:37;27.83;;;15.90;;
73776;SDS011;62088;50.240;2.696;2024-03-08T01:07:04;29.20;;;16.48;;
73776;SDS011;62088;50.240;2.696;2024-03-08T01:09:32;27.15;;;15.02;;
73776;SDS011;62088;50.240;2.696;2024-03-08T01:11:59;29.05;;;14.73;;
73776;SDS011;62088;50.240;2.696;2024-03-08T01:14:27;33.38;;;16.00;;
73776;SDS011;62088;50.240;2.696;2024-03-08T01:16:58;32.28;;;14.88;;
73776;SDS011;62088;50.240;2.696;2024-03-08T01:19:25;24.20;;;13.88;;
73776;SDS011;62088;50.240;2.696;2024-03-08T01:21:52;24.55;;;15.15;;
73776;SDS011;62088;50.240;2.696;2024-03-08T01:24:23;23.63;;;14.05;;
73776;SDS011;62088;50.240;2.696;2024-03-08T01:26:50;29.52;;;13.70;;
73776;SDS011;62088;50.240;2.696;2024-03-08T01:29:17;24.27;;;13.85;;
73776;SDS011;62088;50.240;2.696;2024-03-08T01:31:44;29.15;;;15.38;;
73776;SDS011;62088;50.240;2.696;2024-03-08T01:34:11;23.35;;;14.00;;
73776;SDS011;62088;50.240;2.696;2024-03-08T01:36:38;23.42;;;14.98;;
73776;SDS011;62088;50.240;2.696;2024-03-08T01:39:05;24.77;;;14.93;;
73776;SDS011;62088;50.240;2.696;2024-03-08T01:41:35;29.92;;;15.82;;
73776;SDS011;62088;50.240;2.696;2024-03-08T01:44:03;24.23;;;15.20;;
73776;SDS011;62088;50.240;2.696;2024-03-08T01:46:30;28.58;;;14.77;;
73776;SDS011;62088;50.240;2.696;2024-03-08T01:48:58;23.20;;;13.13;;
73776;SDS011;62088;50.240;2.696;2024-03-08T01:51:28;23.70;;;14.10;;
73776;SDS011;62088;50.240;2.696;2024-03-08T01:53:56;30.40;;;17.88;;
73776;SDS011;62088;50.240;2.696;2024-03-08T01:56:24;29.50;;;17.92;;
73776;SDS011;62088;50.240;2.696;2024-03-08T01:58:52;32.10;;;16.85;;
73776;SDS011;62088;50.240;2.696;2024-03-08T02:01:20;27.05;;;14.77;;
73776;SDS011;62088;50.240;2.696;2024-03-08T02:03:47;27.80;;;15.77;;
73776;SDS011;62088;50.240;2.696;2024-03-08T02:06:15;25.98;;;13.40;;
73776;SDS011;62088;50.240;2.696;2024-03-08T02:08:43;23.42;;;14.27;;
73776;SDS011;62088;50.240;2.696;2024-03-08T02:11:12;25.50;;;13.60;;
73776;SDS011;62088;50.240;2.696;2024-03-08T02:13:39;27.25;;;15.15;;
73776;SDS011;62088;50.240;2.696;2024-03-08T02:16:06;29.05;;;13.77;;
73776;SDS011;62088;50.240;2.696;2024-03-08T02:18:35;26.92;;;14.57;;
73776;SDS011;62088;50.240;2.696;2024-03-08T02:21:04;23.85;;;13.43;;
73776;SDS011;62088;50.240;2.696;2024-03-08T02:23:33;27.25;;;13.15;;
73776;SDS011;62088;50.240;2.696;2024-03-08T02:26:01;23.70;;;13.32;;
73776;SDS011;62088;50.240;2.696;2024-03-08T02:28:28;24.35;;;13.18;;
73776;SDS011;62088;50.240;2.696;2024-03-08T02:30:55;22.70;;;13.63;;
73776;SDS011;62088;50.240;2.696;2024-03-08T02:33:25;21.85;;;12.25;;
73776;SDS011;62088;50.240;2.696;2024-03-08T02:35:54;25.77;;;13.02;;
73776;SDS011;62088;50.240;2.696;2024-03-08T02:38:24;28.23;;;13.73;;
73776;SDS011;62088;50.240;2.696;2024-03-08T02:40:53;32.90;;;14.30;;
73776;SDS011;62088;50.240;2.696;2024-03-08T02:43:21;20.50;;;12.35;;
73776;SDS011;62088;50.240;2.696;2024-03-08T02:45:50;23.95;;;13.43;;
73776;SDS011;62088;50.240;2.696;2024-03-08T02:48:19;30.15;;;14.25;;
73776;SDS011;62088;50.240;2.696;2024-03-08T02:50:48;28.23;;;13.43;;
73776;SDS011;62088;50.240;2.696;2024-03-08T02:53:18;27.88;;;12.95;;
73776;SDS011;62088;50.240;2.696;2024-03-08T02:55:49;24.92;;;13.55;;
73776;SDS011;62088;50.240;2.696;2024-03-08T02:58:16;24.38;;;14.05;;
73776;SDS011;62088;50.240;2.696;2024-03-08T03:00:43;25.33;;;12.32;;
73776;SDS011;62088;50.240;2.696;2024-03-08T03:03:11;24.35;;;13.13;;
73776;SDS011;62088;50.240;2.696;2024-03-08T03:05:39;23.75;;;12.82;;
73776;SDS011;62088;50.240;2.696;2024-03-08T03:08:14;24.40;;;13.18;;
73776;SDS011;62088;50.240;2.696;2024-03-08T03:10:44;24.60;;;14.13;;
73776;SDS011;62088;50.240;2.696;2024-03-08T03:13:11;22.67;;;12.70;;
73776;SDS011;62088;50.240;2.696;2024-03-08T03:15:38;26.67;;;14.73;;
73776;SDS011;62088;50.240;2.696;2024-03-08T03:18:08;26.23;;;12.38;;
73776;SDS011;62088;50.240;2.696;2024-03-08T03:20:36;21.80;;;12.35;;
73776;SDS011;62088;50.240;2.696;2024-03-08T03:23:10;26.95;;;12.88;;
73776;SDS011;62088;50.240;2.696;2024-03-08T03:25:41;23.83;;;11.57;;
73776;SDS011;62088;50.240;2.696;2024-03-08T03:28:09;23.58;;;13.10;;
73776;SDS011;62088;50.240;2.696;2024-03-08T03:30:38;23.92;;;11.63;;
73776;SDS011;62088;50.240;2.696;2024-03-08T03:33:06;26.05;;;12.95;;
73776;SDS011;62088;50.240;2.696;2024-03-08T03:35:34;21.25;;;11.82;;
73776;SDS011;62088;50.240;2.696;2024-03-08T03:38:03;23.55;;;13.35;;
73776;SDS011;62088;50.240;2.696;2024-03-08T03:40:39;25.20;;;12.00;;
73776;SDS011;62088;50.240;2.696;2024-03-08T03:43:07;24.45;;;11.93;;
73776;SDS011;62088;50.240;2.696;2024-03-08T03:45:39;24.80;;;12.98;;
73776;SDS011;62088;50.240;2.696;2024-03-08T03:48:08;30.48;;;12.48;;
73776;SDS011;62088;50.240;2.696;2024-03-08T03:50:37;23.23;;;12.35;;
73776;SDS011;62088;50.240;2.696;2024-03-08T03:53:05;23.77;;;11.13;;
73776;SDS011;62088;50.240;2.696;2024-03-08T03:55:37;29.75;;;12.60;;
73776;SDS011;62088;50.240;2.696;2024-03-08T03:58:07;22.67;;;11.90;;
73776;SDS011;62088;50.240;2.696;2024-03-08T04:00:37;21.52;;;11.75;;
73776;SDS011;62088;50.240;2.696;2024-03-08T04:03:04;26.70;;;10.88;;
73776;SDS011;62088;50.240;2.696;2024-03-08T04:05:33;29.20;;;12.52;;
73776;SDS011;62088;50.240;2.696;2024-03-08T04:08:01;29.13;;;10.93;;
73776;SDS011;62088;50.240;2.696;2024-03-08T04:10:29;21.33;;;11.32;;
73776;SDS011;62088;50.240;2.696;2024-03-08T04:12:56;22.45;;;11.90;;
73776;SDS011;62088;50.240;2.696;2024-03-08T04:15:23;23.27;;;12.15;;
73776;SDS011;62088;50.240;2.696;2024-03-08T04:17:51;21.58;;;11.50;;
73776;SDS011;62088;50.240;2.696;2024-03-08T04:20:19;26.35;;;12.23;;
73776;SDS011;62088;50.240;2.696;2024-03-08T04:22:47;20.83;;;11.13;;
73776;SDS011;62088;50.240;2.696;2024-03-08T04:25:16;18.75;;;11.40;;
73776;SDS011;62088;50.240;2.696;2024-03-08T04:27:43;22.80;;;12.93;;
73776;SDS011;62088;50.240;2.696;2024-03-08T04:30:11;32.50;;;12.35;;
73776;SDS011;62088;50.240;2.696;2024-03-08T04:32:39;22.92;;;11.88;;
73776;SDS011;62088;50.240;2.696;2024-03-08T04:35:08;24.33;;;12.05;;
73776;SDS011;62088;50.240;2.696;2024-03-08T04:37:35;21.70;;;12.63;;
73776;SDS011;62088;50.240;2.696;2024-03-08T04:40:02;23.13;;;11.85;;
73776;SDS011;62088;50.240;2.696;2024-03-08T04:42:30;21.15;;;12.02;;
73776;SDS011;62088;50.240;2.696;2024-03-08T04:44:59;21.63;;;10.80;;
73776;SDS011;62088;50.240;2.696;2024-03-08T04:47:27;24.63;;;12.98;;
73776;SDS011;62088;50.240;2.696;2024-03-08T04:49:54;24.40;;;12.20;;
73776;SDS011;62088;50.240;2.696;2024-03-08T04:52:23;17.85;;;10.88;;
73776;SDS011;62088;50.240;2.696;2024-03-08T04:54:50;25.58;;;11.82;;
73776;SDS011;62088;50.240;2.696;2024-03-08T04:57:17;24.38;;;12.48;;
73776;SDS011;62088;50.240;2.696;2024-03-08T04:59:47;28.13;;;13.55;;
73776;SDS011;62088;50.240;2.696;2024-03-08T05:02:14;20.77;;;11.45;;
73776;SDS011;62088;50.240;2.696;2024-03-08T05:04:42;24.55;;;11.80;;
73776;SDS011;62088;50.240;2.696;2024-03-08T05:07:09;24.15;;;11.90;;
73776;SDS011;62088;50.240;2.696;2024-03-08T05:09:36;21.90;;;12.40;;
73776;SDS011;62088;50.240;2.696;2024-03-08T05:12:04;22.80;;;12.52;;
73776;SDS011;62088;50.240;2.696;2024-03-08T05:14:32;22.63;;;10.82;;
73776;SDS011;62088;50.240;2.696;2024-03-08T05:17:00;28.02;;;12.70;;
73776;SDS011;62088;50.240;2.696;2024-03-08T05:19:28;24.10;;;12.48;;
73776;SDS011;62088;50.240;2.696;2024-03-08T05:22:00;24.60;;;12.55;;
73776;SDS011;62088;50.240;2.696;2024-03-08T05:24:28;26.95;;;12.70;;
73776;SDS011;62088;50.240;2.696;2024-03-08T05:26:57;23.33;;;12.05;;
73776;SDS011;62088;50.240;2.696;2024-03-08T05:29:26;24.80;;;12.70;;
73776;SDS011;62088;50.240;2.696;2024-03-08T05:31:53;23.05;;;11.32;;
73776;SDS011;62088;50.240;2.696;2024-03-08T05:34:20;26.40;;;11.77;;
73776;SDS011;62088;50.240;2.696;2024-03-08T05:36:48;27.15;;;12.85;;
73776;SDS011;62088;50.240;2.696;2024-03-08T05:39:17;25.13;;;12.18;;
73776;SDS011;62088;50.240;2.696;2024-03-08T05:41:45;21.65;;;11.90;;
73776;SDS011;62088;50.240;2.696;2024-03-08T05:44:13;29.58;;;11.95;;
73776;SDS011;62088;50.240;2.696;2024-03-08T05:46:40;17.45;;;10.05;;
73776;SDS011;62088;50.240;2.696;2024-03-08T05:49:07;29.80;;;11.63;;
73776;SDS011;62088;50.240;2.696;2024-03-08T05:51:37;23.88;;;12.38;;
73776;SDS011;62088;50.240;2.696;2024-03-08T05:54:06;23.13;;;12.35;;
73776;SDS011;62088;50.240;2.696;2024-03-08T05:56:41;27.52;;;11.68;;
73776;SDS011;62088;50.240;2.696;2024-03-08T05:59:10;20.35;;;11.30;;
73776;SDS011;62088;50.240;2.696;2024-03-08T06:01:38;20.27;;;10.93;;
73776;SDS011;62088;50.240;2.696;2024-03-08T06:04:08;25.67;;;10.95;;
73776;SDS011;62088;50.240;2.696;2024-03-08T06:06:38;21.70;;;11.93;;
73776;SDS011;62088;50.240;2.696;2024-03-08T06:09:06;30.67;;;12.82;;
73776;SDS011;62088;50.240;2.696;2024-03-08T06:11:36;20.23;;;11.05;;
73776;SDS011;62088;50.240;2.696;2024-03-08T06:14:04;27.08;;;13.10;;
73776;SDS011;62088;50.240;2.696;2024-03-08T06:16:33;20.75;;;11.55;;
73776;SDS011;62088;50.240;2.696;2024-03-08T06:19:00;21.48;;;11.68;;
73776;SDS011;62088;50.240;2.696;2024-03-08T06:21:29;20.42;;;10.43;;
73776;SDS011;62088;50.240;2.696;2024-03-08T06:23:56;22.10;;;12.10;;
73776;SDS011;62088;50.240;2.696;2024-03-08T06:26:24;21.73;;;12.05;;
73776;SDS011;62088;50.240;2.696;2024-03-08T06:28:56;20.75;;;11.55;;
73776;SDS011;62088;50.240;2.696;2024-03-08T06:31:24;22.17;;;11.45;;
73776;SDS011;62088;50.240;2.696;2024-03-08T06:33:51;21.55;;;10.77;;
73776;SDS011;62088;50.240;2.696;2024-03-08T06:36:22;25.90;;;11.45;;
73776;SDS011;62088;50.240;2.696;2024-03-08T06:38:50;24.42;;;12.30;;
73776;SDS011;62088;50.240;2.696;2024-03-08T06:41:17;31.42;;;14.85;;
73776;SDS011;62088;50.240;2.696;2024-03-08T06:43:45;39.33;;;17.70;;
73776;SDS011;62088;50.240;2.696;2024-03-08T06:46:17;38.95;;;16.92;;
73776;SDS011;62088;50.240;2.696;2024-03-08T06:48:44;33.25;;;14.68;;
73776;SDS011;62088;50.240;2.696;2024-03-08T06:51:16;33.30;;;15.38;;
73776;SDS011;62088;50.240;2.696;2024-03-08T06:53:44;38.17;;;19.77;;
73776;SDS011;62088;50.240;2.696;2024-03-08T06:56:11;49.95;;;18.77;;
73776;SDS011;62088;50.240;2.696;2024-03-08T06:58:39;26.80;;;13.32;;
73776;SDS011;62088;50.240;2.696;2024-03-08T07:01:06;20.25;;;11.68;;
73776;SDS011;62088;50.240;2.696;2024-03-08T07:03:34;19.55;;;10.38;;
73776;SDS011;62088;50.240;2.696;2024-03-08T07:06:02;26.80;;;12.50;;
73776;SDS011;62088;50.240;2.696;2024-03-08T07:08:31;27.70;;;12.98;;
73776;SDS011;62088;50.240;2.696;2024-03-08T07:10:59;25.00;;;13.07;;
73776;SDS011;62088;50.240;2.696;2024-03-08T07:13:26;24.92;;;12.35;;
73776;SDS011;62088;50.240;2.696;2024-03-08T07:15:58;25.05;;;14.07;;
73776;SDS011;62088;50.240;2.696;2024-03-08T07:18:27;23.38;;;12.82;;
73776;SDS011;62088;50.240;2.696;2024-03-08T07:20:57;33.72;;;13.75;;
73776;SDS011;62088;50.240;2.696;2024-03-08T07:23:24;22.38;;;11.15;;
73776;SDS011;62088;50.240;2.696;2024-03-08T07:26:10;24.90;;;13.68;;
73776;SDS011;62088;50.240;2.696;2024-03-08T07:28:37;24.85;;;11.48;;
73776;SDS011;62088;50.240;2.696;2024-03-08T07:31:04;26.02;;;11.48;;
73776;SDS011;62088;50.240;2.696;2024-03-08T07:33:44;21.30;;;11.13;;
73776;SDS011;62088;50.240;2.696;2024-03-08T07:36:11;23.65;;;11.95;;
73776;SDS011;62088;50.240;2.696;2024-03-08T07:38:38;26.88;;;13.10;;
73776;SDS011;62088;50.240;2.696;2024-03-08T07:41:06;21.55;;;11.75;;
73776;SDS011;62088;50.240;2.696;2024-03-08T07:43:33;19.90;;;10.38;;
73776;SDS011;62088;50.240;2.696;2024-03-08T07:46:00;23.88;;;11.82;;
73776;SDS011;62088;50.240;2.696;2024-03-08T07:48:27;24.90;;;11.88;;
73776;SDS011;62088;50.240;2.696;2024-03-08T07:50:55;27.27;;;12.60;;
73776;SDS011;62088;50.240;2.696;2024-03-08T07:53:22;21.00;;;11.40;;
73776;SDS011;62088;50.240;2.696;2024-03-08T07:55:53;26.23;;;11.48;;
73776;SDS011;62088;50.240;2.696;2024-03-08T07:58:21;26.25;;;13.35;;
73776;SDS011;62088;50.240;2.696;2024-03-08T08:00:49;23.90;;;10.73;;
73776;SDS011;62088;50.240;2.696;2024-03-08T08:03:16;20.05;;;10.60;;
73776;SDS011;62088;50.240;2.696;2024-03-08T08:05:47;20.27;;;11.25;;
73776;SDS011;62088;50.240;2.696;2024-03-08T08:08:15;20.50;;;10.82;;
73776;SDS011;62088;50.240;2.696;2024-03-08T08:10:43;23.08;;;12.23;;
73776;SDS011;62088;50.240;2.696;2024-03-08T08:13:10;23.88;;;12.63;;
73776;SDS011;62088;50.240;2.696;2024-03-08T08:15:37;20.65;;;11.45;;
73776;SDS011;62088;50.240;2.696;2024-03-08T08:18:05;18.85;;;11.27;;
73776;SDS011;62088;50.240;2.696;2024-03-08T08:20:33;21.63;;;12.40;;
73776;SDS011;62088;50.240;2.696;2024-03-08T08:23:00;22.17;;;12.00;;
73776;SDS011;62088;50.240;2.696;2024-03-08T08:25:27;22.52;;;11.88;;
73776;SDS011;62088;50.240;2.696;2024-03-08T08:27:55;25.65;;;13.13;;
73776;SDS011;62088;50.240;2.696;2024-03-08T08:30:22;21.45;;;11.45;;
73776;SDS011;62088;50.240;2.696;2024-03-08T08:32:49;21.55;;;11.88;;
73776;SDS011;62088;50.240;2.696;2024-03-08T08:35:17;26.65;;;13.43;;
73776;SDS011;62088;50.240;2.696;2024-03-08T08:37:46;26.75;;;13.23;;
73776;SDS011;62088;50.240;2.696;2024-03-08T08:40:13;25.70;;;12.73;;
73776;SDS011;62088;50.240;2.696;2024-03-08T08:42:42;24.90;;;12.55;;
73776;SDS011;62088;50.240;2.696;2024-03-08T08:45:10;33.20;;;12.90;;
73776;SDS011;62088;50.240;2.696;2024-03-08T08:47:46;33.70;;;14.38;;
73776;SDS011;62088;50.240;2.696;2024-03-08T08:50:13;26.70;;;13.93;;
73776;SDS011;62088;50.240;2.696;2024-03-08T08:52:40;28.33;;;16.05;;
73776;SDS011;62088;50.240;2.696;2024-03-08T08:55:10;23.65;;;13.38;;
73776;SDS011;62088;50.240;2.696;2024-03-08T08:57:41;26.38;;;13.32;;
73776;SDS011;62088;50.240;2.696;2024-03-08T09:00:09;23.20;;;12.50;;
73776;SDS011;62088;50.240;2.696;2024-03-08T09:02:42;29.05;;;15.20;;
73776;SDS011;62088;50.240;2.696;2024-03-08T09:05:09;32.13;;;15.50;;
73776;SDS011;62088;50.240;2.696;2024-03-08T09:07:38;23.83;;;12.45;;
73776;SDS011;62088;50.240;2.696;2024-03-08T09:10:05;24.92;;;13.88;;
73776;SDS011;62088;50.240;2.696;2024-03-08T09:12:39;24.97;;;13.87;;
73776;SDS011;62088;50.240;2.696;2024-03-08T09:15:06;27.52;;;13.80;;
73776;SDS011;62088;50.240;2.696;2024-03-08T09:17:40;23.52;;;13.48;;
73776;SDS011;62088;50.240;2.696;2024-03-08T09:20:08;26.17;;;13.90;;
73776;SDS011;62088;50.240;2.696;2024-03-08T09:22:44;24.42;;;13.98;;
73776;SDS011;62088;50.240;2.696;2024-03-08T09:25:12;25.73;;;13.57;;
73776;SDS011;62088;50.240;2.696;2024-03-08T09:27:40;25.02;;;14.50;;
73776;SDS011;62088;50.240;2.696;2024-03-08T09:30:08;25.20;;;14.82;;
73776;SDS011;62088;50.240;2.696;2024-03-08T09:32:35;27.05;;;14.43;;
73776;SDS011;62088;50.240;2.696;2024-03-08T09:35:04;33.15;;;14.88;;
73776;SDS011;62088;50.240;2.696;2024-03-08T09:37:34;28.33;;;14.30;;
73776;SDS011;62088;50.240;2.696;2024-03-08T09:40:02;24.02;;;13.80;;
73776;SDS011;62088;50.240;2.696;2024-03-08T09:42:37;26.95;;;13.88;;
73776;SDS011;62088;50.240;2.696;2024-03-08T09:45:11;26.73;;;14.20;;
73776;SDS011;62088;50.240;2.696;2024-03-08T09:47:39;23.08;;;13.48;;
73776;SDS011;62088;50.240;2.696;2024-03-08T09:50:08;36.17;;;13.55;;
73776;SDS011;62088;50.240;2.696;2024-03-08T09:52:36;23.08;;;12.88;;
73776;SDS011;62088;50.240;2.696;2024-03-08T09:55:04;32.25;;;14.55;;
73776;SDS011;62088;50.240;2.696;2024-03-08T09:57:33;27.95;;;14.93;;
73776;SDS011;62088;50.240;2.696;2024-03-08T10:00:02;24.92;;;13.88;;
73776;SDS011;62088;50.240;2.696;2024-03-08T10:02:38;24.80;;;13.93;;
73776;SDS011;62088;50.240;2.696;2024-03-08T10:05:05;24.15;;;14.60;;
73776;SDS011;62088;50.240;2.696;2024-03-08T10:07:33;24.10;;;14.40;;
73776;SDS011;62088;50.240;2.696;2024-03-08T10:10:01;27.48;;;13.93;;
73776;SDS011;62088;50.240;2.696;2024-03-08T10:12:28;25.00;;;13.65;;
73776;SDS011;62088;50.240;2.696;2024-03-08T10:14:56;24.83;;;13.70;;
73776;SDS011;62088;50.240;2.696;2024-03-08T10:17:24;28.58;;;14.77;;
73776;SDS011;62088;50.240;2.696;2024-03-08T10:19:53;23.77;;;13.82;;
73776;SDS011;62088;50.240;2.696;2024-03-08T10:22:20;24.38;;;15.15;;
73776;SDS011;62088;50.240;2.696;2024-03-08T10:24:47;33.42;;;16.73;;
73776;SDS011;62088;50.240;2.696;2024-03-08T10:27:18;24.30;;;15.13;;
73776;SDS011;62088;50.240;2.696;2024-03-08T10:29:48;25.75;;;14.05;;
73776;SDS011;62088;50.240;2.696;2024-03-08T10:32:15;24.52;;;14.48;;
73776;SDS011;62088;50.240;2.696;2024-03-08T10:34:42;24.10;;;14.27;;
73776;SDS011;62088;50.240;2.696;2024-03-08T10:37:13;22.92;;;14.13;;
73776;SDS011;62088;50.240;2.696;2024-03-08T10:39:45;21.67;;;13.82;;
73776;SDS011;62088;50.240;2.696;2024-03-08T10:45:30;20.75;;;14.38;;
73776;SDS011;62088;50.240;2.696;2024-03-08T10:48:24;24.63;;;14.43;;
73776;SDS011;62088;50.240;2.696;2024-03-08T10:51:05;24.10;;;13.35;;
73776;SDS011;62088;50.240;2.696;2024-03-08T10:53:34;23.88;;;14.13;;
73776;SDS011;62088;50.240;2.696;2024-03-08T10:56:04;22.65;;;12.90;;
73776;SDS011;62088;50.240;2.696;2024-03-08T10:58:31;24.75;;;14.60;;
73776;SDS011;62088;50.240;2.696;2024-03-08T11:01:01;26.73;;;14.63;;
73776;SDS011;62088;50.240;2.696;2024-03-08T11:06:15;26.33;;;14.88;;
73776;SDS011;62088;50.240;2.696;2024-03-08T11:08:55;23.75;;;14.43;;
73776;SDS011;62088;50.240;2.696;2024-03-08T11:11:24;24.90;;;13.80;;
73776;SDS011;62088;50.240;2.696;2024-03-08T11:14:01;26.17;;;13.63;;
73776;SDS011;62088;50.240;2.696;2024-03-08T11:21:32;26.52;;;13.90;;
73776;SDS011;62088;50.240;2.696;2024-03-08T11:24:00;26.98;;;15.35;;
73776;SDS011;62088;50.240;2.696;2024-03-08T11:26:34;25.52;;;13.60;;
73776;SDS011;62088;50.240;2.696;2024-03-08T11:34:42;25.23;;;13.93;;
73776;SDS011;62088;50.240;2.696;2024-03-08T11:37:14;22.58;;;12.80;;
73776;SDS011;62088;50.240;2.696;2024-03-08T11:39:49;19.05;;;13.10;;
73776;SDS011;62088;50.240;2.696;2024-03-08T11:42:17;21.30;;;12.70;;
73776;SDS011;62088;50.240;2.696;2024-03-08T11:44:46;26.88;;;12.52;;
73776;SDS011;62088;50.240;2.696;2024-03-08T11:47:14;22.58;;;12.45;;
73776;SDS011;62088;50.240;2.696;2024-03-08T11:49:43;25.60;;;13.90;;
73776;SDS011;62088;50.240;2.696;2024-03-08T11:52:15;20.30;;;12.23;;
73776;SDS011;62088;50.240;2.696;2024-03-08T11:54:53;18.42;;;11.32;;
73776;SDS011;62088;50.240;2.696;2024-03-08T11:57:25;21.70;;;12.52;;
73776;SDS011;62088;50.240;2.696;2024-03-08T11:59:53;21.00;;;12.15;;
73776;SDS011;62088;50.240;2.696;2024-03-08T12:02:23;20.08;;;11.45;;
73776;SDS011;62088;50.240;2.696;2024-03-08T12:04:58;23.55;;;11.63;;
73776;SDS011;62088;50.240;2.696;2024-03-08T12:07:27;20.63;;;11.20;;
73776;SDS011;62088;50.240;2.696;2024-03-08T12:12:50;22.67;;;11.63;;
73776;SDS011;62088;50.240;2.696;2024-03-08T12:15:23;21.15;;;13.15;;
73776;SDS011;62088;50.240;2.696;2024-03-08T12:17:51;17.85;;;11.13;;
73776;SDS011;62088;50.240;2.696;2024-03-08T12:20:20;21.92;;;10.85;;
73776;SDS011;62088;50.240;2.696;2024-03-08T12:22:49;22.48;;;12.93;;
73776;SDS011;62088;50.240;2.696;2024-03-08T12:25:26;16.52;;;10.65;;
73776;SDS011;62088;50.240;2.696;2024-03-08T12:28:06;18.30;;;11.05;;
73776;SDS011;62088;50.240;2.696;2024-03-08T12:30:47;16.48;;;10.63;;
73776;SDS011;62088;50.240;2.696;2024-03-08T12:33:23;17.50;;;10.77;;
73776;SDS011;62088;50.240;2.696;2024-03-08T12:35:51;21.55;;;10.95;;
73776;SDS011;62088;50.240;2.696;2024-03-08T12:38:21;20.17;;;12.55;;
73776;SDS011;62088;50.240;2.696;2024-03-08T12:40:58;18.88;;;12.63;;
73776;SDS011;62088;50.240;2.696;2024-03-08T12:43:27;18.98;;;11.15;;
73776;SDS011;62088;50.240;2.696;2024-03-08T12:45:58;19.75;;;10.75;;
73776;SDS011;62088;50.240;2.696;2024-03-08T12:48:25;30.42;;;14.88;;
73776;SDS011;62088;50.240;2.696;2024-03-08T12:50:52;25.95;;;14.50;;
73776;SDS011;62088;50.240;2.696;2024-03-08T12:53:21;18.83;;;12.82;;
73776;SDS011;62088;50.240;2.696;2024-03-08T12:55:50;19.08;;;12.40;;
73776;SDS011;62088;50.240;2.696;2024-03-08T12:58:17;18.38;;;9.77;;
73776;SDS011;62088;50.240;2.696;2024-03-08T13:00:46;16.25;;;11.65;;
73776;SDS011;62088;50.240;2.696;2024-03-08T13:03:19;20.98;;;13.13;;
73776;SDS011;62088;50.240;2.696;2024-03-08T13:05:47;18.95;;;11.85;;
73776;SDS011;62088;50.240;2.696;2024-03-08T13:08:15;14.68;;;8.98;;
73776;SDS011;62088;50.240;2.696;2024-03-08T13:10:42;19.88;;;11.90;;
73776;SDS011;62088;50.240;2.696;2024-03-08T13:13:11;18.08;;;12.27;;
73776;SDS011;62088;50.240;2.696;2024-03-08T13:15:42;17.00;;;12.20;;
73776;SDS011;62088;50.240;2.696;2024-03-08T13:18:09;18.00;;;12.48;;
73776;SDS011;62088;50.240;2.696;2024-03-08T13:20:37;18.33;;;12.80;;
73776;SDS011;62088;50.240;2.696;2024-03-08T13:23:13;19.00;;;13.23;;
73776;SDS011;62088;50.240;2.696;2024-03-08T13:25:40;18.70;;;13.48;;
73776;SDS011;62088;50.240;2.696;2024-03-08T13:28:07;17.95;;;11.80;;
73776;SDS011;62088;50.240;2.696;2024-03-08T13:30:35;18.40;;;13.68;;
73776;SDS011;62088;50.240;2.696;2024-03-08T13:33:03;20.00;;;12.98;;
73776;SDS011;62088;50.240;2.696;2024-03-08T13:35:31;18.98;;;13.52;;
73776;SDS011;62088;50.240;2.696;2024-03-08T13:37:59;19.60;;;12.98;;
73776;SDS011;62088;50.240;2.696;2024-03-08T13:40:29;18.13;;;10.02;;
73776;SDS011;62088;50.240;2.696;2024-03-08T13:42:57;19.67;;;12.02;;
73776;SDS011;62088;50.240;2.696;2024-03-08T13:45:28;17.00;;;11.40;;
73776;SDS011;62088;50.240;2.696;2024-03-08T13:47:55;15.50;;;9.90;;
73776;SDS011;62088;50.240;2.696;2024-03-08T13:50:23;19.83;;;10.02;;
73776;SDS011;62088;50.240;2.696;2024-03-08T13:52:50;15.45;;;10.57;;
73776;SDS011;62088;50.240;2.696;2024-03-08T13:55:20;16.00;;;10.50;;
73776;SDS011;62088;50.240;2.696;2024-03-08T13:57:54;16.35;;;11.50;;
73776;SDS011;62088;50.240;2.696;2024-03-08T14:00:24;16.98;;;11.80;;
73776;SDS011;62088;50.240;2.696;2024-03-08T14:02:55;17.67;;;11.27;;
73776;SDS011;62088;50.240;2.696;2024-03-08T14:05:22;16.70;;;9.10;;
73776;SDS011;62088;50.240;2.696;2024-03-08T14:07:50;27.42;;;12.05;;
73776;SDS011;62088;50.240;2.696;2024-03-08T14:10:21;17.98;;;12.65;;
73776;SDS011;62088;50.240;2.696;2024-03-08T14:12:50;19.77;;;11.90;;
73776;SDS011;62088;50.240;2.696;2024-03-08T14:15:17;23.08;;;13.95;;
73776;SDS011;62088;50.240;2.696;2024-03-08T14:17:44;18.15;;;12.43;;
73776;SDS011;62088;50.240;2.696;2024-03-08T14:20:18;16.10;;;10.55;;
73776;SDS011;62088;50.240;2.696;2024-03-08T14:22:45;15.52;;;11.35;;
73776;SDS011;62088;50.240;2.696;2024-03-08T14:25:12;21.08;;;12.93;;
73776;SDS011;62088;50.240;2.696;2024-03-08T14:27:45;20.17;;;14.43;;
73776;SDS011;62088;50.240;2.696;2024-03-08T14:30:13;19.20;;;14.00;;
73776;SDS011;62088;50.240;2.696;2024-03-08T14:32:54;19.38;;;14.10;;
73776;SDS011;62088;50.240;2.696;2024-03-08T14:35:22;21.02;;;12.00;;
73776;SDS011;62088;50.240;2.696;2024-03-08T14:37:49;20.40;;;14.15;;
73776;SDS011;62088;50.240;2.696;2024-03-08T14:40:16;17.67;;;11.63;;
73776;SDS011;62088;50.240;2.696;2024-03-08T14:42:43;17.50;;;12.27;;
73776;SDS011;62088;50.240;2.696;2024-03-08T14:45:11;18.17;;;15.70;;
73776;SDS011;62088;50.240;2.696;2024-03-08T14:47:38;20.95;;;12.88;;
73776;SDS011;62088;50.240;2.696;2024-03-08T14:50:05;20.70;;;12.52;;